createdAt,value
2019-06-20T00:00:00.977Z,84.11
2019-06-20T00:05:04.908Z,84.04
2019-06-20T00:10:07.810Z,84.21
2019-06-20T00:15:10.932Z,84.35
2019-06-20T00:20:13.999Z,83.97
2019-06-20T00:25:16.805Z,84.05
2019-06-20T00:30:19.581Z,84.42
2019-06-20T00:35:22.364Z,83.99
2019-06-20T00:40:25.139Z,84.04
2019-06-20T00:45:27.933Z,84.20
2019-06-20T00:50:30.717Z,84.46
2019-06-20T00:55:33.499Z,84.35
2019-06-20T01:00:36.464Z,84.45
2019-06-20T01:05:39.283Z,84.44
2019-06-20T01:10:42.381Z,84.28
2019-06-20T01:15:45.162Z,84.06
2019-06-20T01:20:48.005Z,84.04
2019-06-20T01:25:50.754Z,83.75
2019-06-20T01:30:53.552Z,83.81
2019-06-20T01:36:02.173Z,83.88
2019-06-20T01:41:06.209Z,83.97
2019-06-20T01:46:09.272Z,83.81
2019-06-20T01:51:12.048Z,83.69
2019-06-20T01:56:14.827Z,83.70
2019-06-20T02:01:17.726Z,83.81
2019-06-20T02:06:20.641Z,84.02
2019-06-20T02:11:23.526Z,84.00
2019-06-20T02:16:26.304Z,83.91
2019-06-20T02:21:29.089Z,83.83
2019-06-20T02:26:31.888Z,83.58
2019-06-20T02:31:34.814Z,83.53
2019-06-20T02:36:37.639Z,83.31
2019-06-20T02:41:40.635Z,83.18
2019-06-20T02:46:43.421Z,83.13
2019-06-20T02:51:47.249Z,83.10
2019-06-20T02:56:50.190Z,83.15
2019-06-20T03:01:53.106Z,82.99
2019-06-20T03:06:55.874Z,82.90
2019-06-20T03:11:58.659Z,82.59
2019-06-20T03:17:01.520Z,82.35
2019-06-20T03:22:04.554Z,82.31
2019-06-20T03:27:08.187Z,82.07
2019-06-20T03:32:11.063Z,81.82
2019-06-20T03:37:13.978Z,81.76
2019-06-20T03:42:16.803Z,81.70
2019-06-20T03:47:19.647Z,81.68
2019-06-20T03:52:22.471Z,81.44
2019-06-20T03:57:25.264Z,81.07
2019-06-20T04:02:28.028Z,80.71
2019-06-20T04:07:30.973Z,80.25
2019-06-20T04:12:33.878Z,79.82
2019-06-20T04:17:36.670Z,79.39
2019-06-20T04:22:39.468Z,79.21
2019-06-20T04:27:42.243Z,78.76
2019-06-20T04:32:45.337Z,78.45
2019-06-20T04:37:48.545Z,78.37
2019-06-20T04:42:51.344Z,78.38
2019-06-20T04:47:54.131Z,78.34
2019-06-20T04:52:57.077Z,78.68
2019-06-20T04:58:00.007Z,78.98
2019-06-20T05:03:03.201Z,78.86
2019-06-20T05:08:06.032Z,79.01
2019-06-20T05:13:08.830Z,78.49
2019-06-20T05:18:11.750Z,78.33
2019-06-20T05:23:14.579Z,78.25
2019-06-20T05:28:17.469Z,78.63
2019-06-20T05:33:20.250Z,79.12
2019-06-20T05:38:23.034Z,78.86
2019-06-20T05:43:25.952Z,78.36
2019-06-20T05:48:28.781Z,78.29
2019-06-20T05:53:31.589Z,77.39
2019-06-20T05:58:34.530Z,77.06
2019-06-20T06:03:37.345Z,76.94
2019-06-20T06:08:40.211Z,76.53
2019-06-20T06:13:43.053Z,76.14
2019-06-20T06:18:45.877Z,75.66
2019-06-20T06:23:51.142Z,75.62
2019-06-20T06:28:54.079Z,75.54
2019-06-20T06:33:56.992Z,74.49
2019-06-20T06:38:59.803Z,73.96
2019-06-20T06:44:02.899Z,72.70
2019-06-20T06:49:05.714Z,73.10
2019-06-20T06:54:10.166Z,72.00
2019-06-20T06:59:13.420Z,70.82
2019-06-20T07:04:16.716Z,70.58
2019-06-20T07:09:19.855Z,70.22
2019-06-20T07:14:22.743Z,69.56
2019-06-20T07:19:25.875Z,68.71
2019-06-20T07:24:28.821Z,67.29
2019-06-20T07:29:31.779Z,67.96
2019-06-20T07:34:35.145Z,68.73
2019-06-20T07:39:39.400Z,68.65
2019-06-20T07:44:42.953Z,66.69
2019-06-20T07:49:46.567Z,65.05
2019-06-20T07:54:50.293Z,65.61
2019-06-20T07:59:54.268Z,66.70
2019-06-20T08:04:58.957Z,66.96
2019-06-20T08:10:03.767Z,65.62
2019-06-20T08:15:15.140Z,64.77
2019-06-20T08:20:18.099Z,63.64
2019-06-20T08:25:23.992Z,63.13
2019-06-20T08:30:30.098Z,63.45
2019-06-20T08:35:34.397Z,65.31
2019-06-20T08:40:42.891Z,65.81
2019-06-20T08:45:47.085Z,66.76
2019-06-20T08:50:51.463Z,66.56
2019-06-20T08:55:56.325Z,65.91
2019-06-20T09:06:07.280Z,61.82
2019-06-20T09:11:11.357Z,62.46
2019-06-20T09:16:24.243Z,62.00
2019-06-20T09:21:20.609Z,61.38
2019-06-20T09:26:24.043Z,60.28
2019-06-20T09:31:28.396Z,60.09
2019-06-20T09:36:32.142Z,59.20
2019-06-20T09:41:35.956Z,58.07
2019-06-20T09:46:39.809Z,55.15
2019-06-20T09:51:43.976Z,54.94
2019-06-20T09:56:53.082Z,55.70
2019-06-20T10:01:56.574Z,55.15
2019-06-20T10:07:01.307Z,54.96
2019-06-20T10:12:05.911Z,56.61
2019-06-20T10:17:10.583Z,57.24
2019-06-20T10:22:18.527Z,57.46
2019-06-20T10:27:24.392Z,56.01
2019-06-20T10:32:28.414Z,56.84
2019-06-20T10:37:31.973Z,59.22
2019-06-20T10:42:35.930Z,58.51
2019-06-20T10:47:40.312Z,56.97
2019-06-20T10:52:48.021Z,54.65
2019-06-20T10:57:52.504Z,55.44
2019-06-20T11:02:57.677Z,54.32
2019-06-20T11:08:02.133Z,53.19
2019-06-20T11:13:05.775Z,53.60
2019-06-20T11:18:09.343Z,54.38
2019-06-20T11:23:12.827Z,53.76
2019-06-20T11:28:17.091Z,53.09
2019-06-20T11:33:21.751Z,53.85
2019-06-20T11:38:25.957Z,52.00
2019-06-20T11:43:29.949Z,52.27
2019-06-20T11:48:35.314Z,51.25
2019-06-20T11:53:40.639Z,49.93
2019-06-20T11:58:44.952Z,49.92
2019-06-20T12:03:48.998Z,51.06
2019-06-20T12:09:10.057Z,51.17
2019-06-20T12:14:14.763Z,51.45
2019-06-20T12:19:17.978Z,51.05
2019-06-20T12:24:21.799Z,50.80
2019-06-20T12:29:27.349Z,51.52
2019-06-20T12:34:31.072Z,51.02
2019-06-20T12:39:34.903Z,51.79
2019-06-20T12:44:40.066Z,51.83
2019-06-20T12:49:43.841Z,51.46
2019-06-20T12:54:47.644Z,52.25
2019-06-20T12:59:52.086Z,51.36
2019-06-20T13:04:56.162Z,50.52
2019-06-20T13:10:01.936Z,50.10
2019-06-20T13:15:07.418Z,50.90
2019-06-20T13:20:12.418Z,49.95
2019-06-20T13:25:18.117Z,49.05
2019-06-20T13:30:22.250Z,48.65
2019-06-20T13:35:26.359Z,49.35
2019-06-20T13:40:30.361Z,49.65
2019-06-20T13:45:34.461Z,49.05
2019-06-20T13:50:38.668Z,48.34
2019-06-20T13:55:44.133Z,48.08
2019-06-20T14:00:48.205Z,48.04
2019-06-20T14:05:53.680Z,48.27
2019-06-20T14:10:57.716Z,48.91
2019-06-20T14:16:02.028Z,48.38
2019-06-20T14:21:06.156Z,48.90
2019-06-20T14:26:10.156Z,48.26
2019-06-20T14:31:14.239Z,48.76
2019-06-20T14:36:18.071Z,47.83
2019-06-20T14:41:22.076Z,45.91
2019-06-20T14:46:25.841Z,46.99
2019-06-20T14:51:29.848Z,46.07
2019-06-20T14:56:34.187Z,46.54
2019-06-20T15:01:37.996Z,46.87
2019-06-20T15:06:42.431Z,46.59
2019-06-20T15:11:49.704Z,47.42
2019-06-20T15:16:53.943Z,46.82
2019-06-20T15:21:58.110Z,47.31
2019-06-20T15:27:02.487Z,47.80
2019-06-20T15:32:06.802Z,48.44
2019-06-20T15:37:10.843Z,47.92
2019-06-20T15:42:14.506Z,48.46
2019-06-20T15:47:18.096Z,48.15
2019-06-20T15:52:22.076Z,47.70
2019-06-20T15:57:26.412Z,47.80
2019-06-20T16:02:30.236Z,47.71
2019-06-20T16:07:34.488Z,46.60
2019-06-20T16:12:38.861Z,44.51
2019-06-20T16:17:42.857Z,44.52
2019-06-20T16:22:46.802Z,45.03
2019-06-20T16:27:50.457Z,44.86
2019-06-20T16:32:54.102Z,44.23
2019-06-20T16:37:57.538Z,44.21
2019-06-20T16:43:02.056Z,44.90
2019-06-20T16:48:06.117Z,44.78
2019-06-20T16:53:10.324Z,44.62
2019-06-20T16:58:14.629Z,45.17
2019-06-20T17:03:18.116Z,46.54
2019-06-20T17:08:22.292Z,47.50
2019-06-20T17:13:26.310Z,47.65
2019-06-20T17:18:30.279Z,47.40
2019-06-20T17:23:34.259Z,47.27
2019-06-20T17:28:37.991Z,47.83
2019-06-20T17:33:56.792Z,48.05
2019-06-20T17:38:48.977Z,48.64
2019-06-20T17:43:52.213Z,49.29
2019-06-20T17:48:56.570Z,49.48
2019-06-20T17:53:59.461Z,49.87
2019-06-20T17:59:02.336Z,50.27
2019-06-20T18:04:13.578Z,50.91
2019-06-20T18:09:10.031Z,50.95
2019-06-20T18:14:12.902Z,51.16
2019-06-20T18:19:15.653Z,51.55
2019-06-20T18:24:18.429Z,52.11
2019-06-20T18:29:21.211Z,52.25
2019-06-20T18:34:29.922Z,52.88
2019-06-20T18:39:28.697Z,53.15
2019-06-20T18:44:31.611Z,53.54
2019-06-20T18:49:34.414Z,53.77
2019-06-20T18:54:37.242Z,54.09
2019-06-20T18:59:40.015Z,54.27
2019-06-20T19:04:49.448Z,54.39
2019-06-20T19:09:47.884Z,54.78
2019-06-20T19:14:54.783Z,55.30
2019-06-20T19:19:57.678Z,55.69
2019-06-20T19:25:03.813Z,55.87
2019-06-20T19:30:05.570Z,56.48
2019-06-20T19:35:10.342Z,56.69
2019-06-20T19:40:13.985Z,56.76
2019-06-20T19:45:16.867Z,57.64
2019-06-20T19:50:20.134Z,57.90
2019-06-20T19:55:23.096Z,58.41
2019-06-20T20:00:25.839Z,58.54
2019-06-20T20:05:28.906Z,58.79
2019-06-20T20:10:47.496Z,59.21
2019-06-20T20:15:50.272Z,59.16
2019-06-20T20:20:53.044Z,60.10
2019-06-20T20:25:55.839Z,60.72
2019-06-20T20:30:58.610Z,61.45
2019-06-20T20:36:02.126Z,62.85
2019-06-20T20:41:04.984Z,63.44
2019-06-20T20:46:07.806Z,64.81
2019-06-20T20:51:10.813Z,68.24
2019-06-20T20:56:13.593Z,68.86
2019-06-20T21:01:28.814Z,69.61
2019-06-20T21:06:31.579Z,69.70
2019-06-20T21:11:34.404Z,67.08
2019-06-20T21:16:37.205Z,64.03
2019-06-20T21:21:40.094Z,63.84
2019-06-20T21:26:49.381Z,64.02
2019-06-20T21:31:47.647Z,64.17
2019-06-20T21:36:50.481Z,64.57
2019-06-20T21:41:53.331Z,65.29
2019-06-20T21:46:56.098Z,65.82
2019-06-20T21:51:58.887Z,66.36
2019-06-20T21:57:01.750Z,67.07
2019-06-20T22:02:05.750Z,67.29
2019-06-20T22:07:08.766Z,67.87
2019-06-20T22:12:11.555Z,68.42
2019-06-20T22:17:14.559Z,68.85
2019-06-20T22:22:17.419Z,68.93
2019-06-20T22:27:20.372Z,69.05
2019-06-20T22:32:23.168Z,69.25
2019-06-20T22:37:26.185Z,69.46
2019-06-20T22:42:29.366Z,69.70
2019-06-20T22:47:32.561Z,69.83
2019-06-20T22:52:35.728Z,69.96
2019-06-20T22:57:38.894Z,70.12
2019-06-20T23:02:42.114Z,70.52
2019-06-20T23:07:45.254Z,70.93
2019-06-20T23:12:48.358Z,71.17
2019-06-20T23:17:51.549Z,71.60
2019-06-20T23:22:54.751Z,72.00
2019-06-20T23:27:58.122Z,72.32
2019-06-20T23:33:01.095Z,72.76
2019-06-20T23:38:04.221Z,72.91
2019-06-20T23:43:07.526Z,72.86
2019-06-20T23:48:10.819Z,72.87
2019-06-20T23:53:25.670Z,73.12
2019-06-20T23:58:28.894Z,73.45
